Terminal Aerodrome Forecast
Issued by NWS

Home | Current Version | Previous Version | Text Only | Print | Product List | Glossary Off
Versions: 1 2 3 4 5 6 7 8 9 10 11 12 13

000
FTUS43 KICT 010520
TAFHUT
TAF
KHUT 010520Z 0106/0206 16008KT P6SM SKC
     FM011600 18016G23KT P6SM SKC
     FM020100 16009KT P6SM SCT100 BKN200=

USA.gov is the U.S. government's official web portal to all federal, state and local government web resources and services.